createdAt,value
2022-10-17T00:00:51.529Z,101324.03
2022-10-17T00:03:19.569Z,101322.13
2022-10-17T00:05:49.497Z,101319.19
2022-10-17T00:08:19.205Z,101330.22
2022-10-17T00:10:47.265Z,101322.13
2022-10-17T00:13:15.089Z,101331.25
2022-10-17T00:15:46.010Z,101317.28
2022-10-17T00:18:13.865Z,101319.38
2022-10-17T00:20:41.716Z,101312.78
2022-10-17T00:23:10.021Z,101322.81
2022-10-17T00:25:38.050Z,101316.25
2022-10-17T00:28:06.083Z,101319.03
2022-10-17T00:30:34.581Z,101316.25
2022-10-17T00:33:05.101Z,101316.97
2022-10-17T00:35:33.889Z,101319.88
2022-10-17T00:38:01.759Z,101319.88
2022-10-17T00:40:29.749Z,101317.13
2022-10-17T00:42:57.725Z,101322.50
2022-10-17T00:45:29.210Z,101329.75
2022-10-17T00:48:01.722Z,101333.22
2022-10-17T00:50:31.431Z,101324.22
2022-10-17T00:53:02.458Z,101322.00
2022-10-17T00:55:34.414Z,101324.75
2022-10-17T00:58:06.871Z,101317.34
2022-10-17T01:00:37.020Z,101311.81
2022-10-17T01:03:05.966Z,101319.06
2022-10-17T01:05:35.684Z,101316.88
2022-10-17T01:08:04.006Z,101321.69
2022-10-17T01:10:36.056Z,101320.50
2022-10-17T01:13:14.668Z,101304.59
2022-10-17T01:15:53.681Z,101304.44
2022-10-17T01:18:33.964Z,101307.34
2022-10-17T01:21:44.972Z,101313.06
2022-10-17T01:24:47.910Z,101314.25
2022-10-17T01:27:49.881Z,101319.47
2022-10-17T01:30:36.104Z,101318.91
2022-10-17T01:33:13.458Z,101317.53
2022-10-17T01:35:47.557Z,101311.84
2022-10-17T01:38:20.415Z,101308.94
2022-10-17T01:40:57.255Z,101313.44
2022-10-17T01:43:30.620Z,101325.38
2022-10-17T01:46:02.848Z,101311.53
2022-10-17T01:48:36.858Z,101297.72
2022-10-17T01:51:10.243Z,101305.84
2022-10-17T01:53:43.231Z,101294.66
2022-10-17T01:56:14.315Z,101301.88
2022-10-17T01:58:48.110Z,101297.06
2022-10-17T02:01:18.211Z,101305.50
2022-10-17T02:03:51.510Z,101294.28
2022-10-17T02:06:19.682Z,101288.06
2022-10-17T02:08:50.047Z,101275.81
2022-10-17T02:11:21.024Z,101274.78
2022-10-17T02:14:15.824Z,101277.88
2022-10-17T02:16:51.427Z,101277.56
2022-10-17T02:19:44.791Z,101273.75
2022-10-17T02:22:22.838Z,101273.59
2022-10-17T02:24:56.107Z,101285.69
2022-10-17T02:27:36.430Z,101287.44
2022-10-17T02:30:13.160Z,101288.28
2022-10-17T02:32:50.269Z,101292.09
2022-10-17T02:35:26.478Z,101287.44
2022-10-17T02:37:54.496Z,101293.28
2022-10-17T02:40:25.447Z,101287.03
2022-10-17T02:42:56.536Z,101287.44
2022-10-17T02:45:27.511Z,101282.94
2022-10-17T02:48:00.085Z,101284.66
2022-10-17T02:50:40.482Z,101282.94
2022-10-17T02:53:13.589Z,101290.50
2022-10-17T02:55:49.449Z,101298.63
2022-10-17T02:58:22.124Z,101297.63
2022-10-17T03:00:51.141Z,101287.03
2022-10-17T03:03:24.472Z,101291.53
2022-10-17T03:05:54.446Z,101286.72
2022-10-17T03:08:29.491Z,101287.91
2022-10-17T03:10:57.690Z,101306.22
2022-10-17T03:13:27.547Z,101301.56
2022-10-17T03:15:57.172Z,101300.53
2022-10-17T03:18:25.522Z,101294.13
2022-10-17T03:20:59.675Z,101289.47
2022-10-17T03:23:27.628Z,101291.53
2022-10-17T03:25:56.226Z,101287.91
2022-10-17T03:28:24.746Z,101295.16
2022-10-17T03:30:52.936Z,101296.03
2022-10-17T03:33:21.188Z,101298.09
2022-10-17T03:38:19.894Z,101303.47
2022-10-17T03:40:56.249Z,101303.31
2022-10-17T03:43:24.786Z,101304.50
2022-10-17T03:45:52.850Z,101298.97
2022-10-17T03:48:21.058Z,101304.50
2022-10-17T03:50:49.195Z,101307.25
2022-10-17T03:53:17.171Z,101313.66
2022-10-17T03:55:46.633Z,101312.47
2022-10-17T03:58:14.527Z,101310.88
2022-10-17T04:00:42.386Z,101311.75
2022-10-17T04:03:16.278Z,101323.69
2022-10-17T04:05:45.424Z,101313.50
2022-10-17T04:08:13.501Z,101316.09
2022-10-17T04:11:08.950Z,101316.25
2022-10-17T04:13:37.237Z,101318.84
2022-10-17T04:16:08.031Z,101317.66
2022-10-17T04:18:41.492Z,101320.44
2022-10-17T04:21:10.190Z,101328.72
2022-10-17T04:23:38.874Z,101325.97
2022-10-17T04:26:18.069Z,101326.66
2022-10-17T04:28:46.341Z,101333.19
2022-10-17T04:31:15.920Z,101330.28
2022-10-17T04:34:04.679Z,101326.81
2022-10-17T04:36:32.871Z,101332.34
2022-10-17T04:39:01.748Z,101328.38
2022-10-17T04:41:33.189Z,101325.47
2022-10-17T04:44:02.714Z,101316.47
2022-10-17T04:46:35.247Z,101329.09
2022-10-17T04:49:03.351Z,101332.88
2022-10-17T04:51:31.610Z,101335.66
2022-10-17T04:54:20.838Z,101331.16
2022-10-17T04:56:55.105Z,101338.09
2022-10-17T04:59:23.276Z,101340.88
2022-10-17T05:01:59.580Z,101337.22
2022-10-17T05:04:28.225Z,101335.34
2022-10-17T05:06:56.336Z,101337.06
2022-10-17T05:09:33.327Z,101342.59
2022-10-17T05:12:04.410Z,101343.28
2022-10-17T05:14:35.238Z,101337.91
2022-10-17T05:17:03.328Z,101341.53
2022-10-17T05:19:31.893Z,101347.06
2022-10-17T05:22:00.586Z,101337.91
2022-10-17T05:24:28.503Z,101347.94
2022-10-17T05:26:56.753Z,101350.69
2022-10-17T05:29:26.413Z,101345.88
2022-10-17T05:32:03.781Z,101342.41
2022-10-17T05:34:32.309Z,101349.69
2022-10-17T05:37:00.216Z,101344.16
2022-10-17T05:39:28.385Z,101342.25
2022-10-17T05:41:57.767Z,101354.19
2022-10-17T05:44:27.518Z,101364.97
2022-10-17T05:46:58.767Z,101365.09
2022-10-17T05:49:44.983Z,101369.75
2022-10-17T05:52:16.992Z,101362.31
2022-10-17T05:54:57.289Z,101366.97
2022-10-17T05:57:26.463Z,101344.56
2022-10-17T05:59:55.942Z,101355.44
2022-10-17T06:02:24.020Z,101373.09
2022-10-17T06:04:52.009Z,101384.16
2022-10-17T06:07:22.218Z,101388.63
2022-10-17T06:09:50.798Z,101396.75
2022-10-17T06:12:19.228Z,101398.50
2022-10-17T06:14:47.945Z,101398.34
2022-10-17T06:17:18.547Z,101409.97
2022-10-17T06:19:46.791Z,101420.16
2022-10-17T06:22:16.552Z,101418.25
2022-10-17T06:24:45.074Z,101425.50
2022-10-17T06:27:14.304Z,101427.06
2022-10-17T06:29:42.707Z,101426.06
2022-10-17T06:32:14.925Z,101429.53
2022-10-17T06:34:48.507Z,101426.41
2022-10-17T06:37:16.733Z,101421.59
2022-10-17T06:39:46.676Z,101418.50
2022-10-17T06:42:18.672Z,101429.22
2022-10-17T06:45:06.003Z,101424.25
2022-10-17T06:47:54.461Z,101417.53
2022-10-17T06:50:35.859Z,101417.88
2022-10-17T06:53:35.427Z,101423.41
2022-10-17T06:56:21.639Z,101432.59
2022-10-17T06:59:10.683Z,101435.72
2022-10-17T07:01:43.204Z,101440.94
2022-10-17T07:04:15.253Z,101445.97
2022-10-17T07:06:44.714Z,101447.22
2022-10-17T07:09:17.534Z,101446.88
2022-10-17T07:11:46.045Z,101450.69
2022-10-17T07:14:17.925Z,101449.19
2022-10-17T07:16:47.208Z,101458.94
2022-10-17T07:19:24.100Z,101463.47
2022-10-17T07:21:54.201Z,101451.06
2022-10-17T07:24:23.164Z,101457.81
2022-10-17T07:26:59.425Z,101452.47
2022-10-17T07:29:27.851Z,101455.78
2022-10-17T07:32:20.197Z,101450.34
2022-10-17T07:34:48.014Z,101458.38
2022-10-17T07:37:17.746Z,101467.91
2022-10-17T07:39:52.208Z,101471.72
2022-10-17T07:42:22.569Z,101457.00
2022-10-17T07:44:51.330Z,101459.91
2022-10-17T07:47:20.611Z,101463.72
2022-10-17T07:49:49.158Z,101460.13
2022-10-17T07:52:18.675Z,101457.84
2022-10-17T07:54:46.543Z,101449.72
2022-10-17T07:57:14.328Z,101458.88
2022-10-17T07:59:42.193Z,101457.69
2022-10-17T08:02:24.102Z,101464.59
2022-10-17T08:04:52.690Z,101469.28
2022-10-17T08:07:28.401Z,101468.47
2022-10-17T08:09:57.400Z,101476.56
2022-10-17T08:12:25.961Z,101486.31
2022-10-17T08:14:53.877Z,101492.22
2022-10-17T08:17:22.013Z,101494.50
2022-10-17T08:19:49.922Z,101499.50
2022-10-17T08:22:17.815Z,101514.59
2022-10-17T08:24:47.302Z,101520.34
2022-10-17T08:27:15.092Z,101530.91
2022-10-17T08:29:42.959Z,101522.94
2022-10-17T08:32:10.741Z,101511.16
2022-10-17T08:34:38.500Z,101508.56
2022-10-17T08:37:06.730Z,101517.03
2022-10-17T08:39:34.712Z,101524.66
2022-10-17T08:42:25.408Z,101531.78
2022-10-17T08:45:06.834Z,101531.97
2022-10-17T08:47:39.679Z,101536.63
2022-10-17T08:50:13.626Z,101549.47
2022-10-17T08:52:46.095Z,101549.81
2022-10-17T08:57:51.834Z,101534.50
2022-10-17T09:00:22.123Z,101545.09
2022-10-17T09:03:03.524Z,101547.16
2022-10-17T09:05:48.211Z,101538.50
2022-10-17T09:08:29.017Z,101551.84
2022-10-17T09:11:01.551Z,101548.72
2022-10-17T09:13:40.459Z,101544.59
2022-10-17T09:16:24.465Z,101553.03
2022-10-17T09:19:04.158Z,101570.03
2022-10-17T09:21:41.351Z,101559.59
2022-10-17T09:24:16.643Z,101564.97
2022-10-17T09:26:47.806Z,101575.03
2022-10-17T09:29:23.956Z,101570.22
2022-10-17T09:32:00.620Z,101574.91
2022-10-17T09:34:30.318Z,101583.25
2022-10-17T09:37:00.867Z,101574.72
2022-10-17T09:39:31.914Z,101573.13
2022-10-17T09:42:01.971Z,101577.50
2022-10-17T09:44:34.240Z,101566.41
2022-10-17T09:47:20.533Z,101576.81
2022-10-17T09:49:49.642Z,101589.97
2022-10-17T09:52:19.966Z,101582.50
2022-10-17T09:54:50.507Z,101582.69
2022-10-17T09:57:19.881Z,101597.66
2022-10-17T09:59:57.956Z,101595.91
2022-10-17T10:02:27.816Z,101604.59
2022-10-17T10:05:07.387Z,101598.84
2022-10-17T10:07:38.255Z,101604.75
2022-10-17T10:10:08.477Z,101596.59
2022-10-17T10:12:37.968Z,101620.06
2022-10-17T10:15:32.512Z,101615.00
2022-10-17T10:18:00.630Z,101604.94
2022-10-17T10:20:32.599Z,101610.16
2022-10-17T10:23:10.920Z,101615.00
2022-10-17T10:25:39.003Z,101608.97
2022-10-17T10:28:12.044Z,101611.56
2022-10-17T10:30:41.433Z,101616.44
2022-10-17T10:33:12.771Z,101616.44
2022-10-17T10:35:40.830Z,101620.75
2022-10-17T10:38:12.470Z,101625.09
2022-10-17T10:40:47.348Z,101638.28
2022-10-17T10:43:24.241Z,101652.00
2022-10-17T10:45:54.307Z,101651.13
2022-10-17T10:48:24.756Z,101665.00
2022-10-17T10:50:57.395Z,101671.44
2022-10-17T10:53:35.358Z,101670.41
2022-10-17T10:56:09.418Z,101678.72
2022-10-17T10:58:52.806Z,101673.19
2022-10-17T11:01:30.567Z,101674.22
2022-10-17T11:04:22.797Z,101672.47
2022-10-17T11:06:54.714Z,101666.91
2022-10-17T11:09:35.770Z,101663.97
2022-10-17T11:12:11.925Z,101642.63
2022-10-17T11:14:46.103Z,101634.13
2022-10-17T11:17:25.336Z,101614.00
2022-10-17T11:20:03.007Z,101633.44
2022-10-17T11:22:35.333Z,101636.38
2022-10-17T11:25:07.595Z,101647.47
2022-10-17T11:27:35.602Z,101643.50
2022-10-17T11:30:04.710Z,101655.16
2022-10-17T11:32:38.719Z,101672.47
2022-10-17T11:35:15.928Z,101678.03
2022-10-17T11:37:50.645Z,101678.91
2022-10-17T11:40:24.478Z,101673.34
2022-10-17T11:42:58.186Z,101672.31
2022-10-17T11:45:29.199Z,101671.44
2022-10-17T11:48:04.134Z,101675.78
2022-10-17T11:53:25.991Z,101683.25
2022-10-17T11:55:59.038Z,101691.25
2022-10-17T11:58:35.936Z,101695.72
2022-10-17T12:01:15.104Z,101690.88
2022-10-17T12:04:08.167Z,101689.13
2022-10-17T12:06:47.383Z,101689.84
2022-10-17T12:09:25.280Z,101698.00
2022-10-17T12:11:56.560Z,101695.91
2022-10-17T12:14:39.981Z,101705.13
2022-10-17T12:17:26.604Z,101700.44
2022-10-17T12:20:30.918Z,101699.56
2022-10-17T12:23:18.799Z,101697.28
2022-10-17T12:25:51.670Z,101697.13
2022-10-17T12:28:28.151Z,101700.59
2022-10-17T12:30:59.212Z,101693.13
2022-10-17T12:33:35.525Z,101695.72
2022-10-17T12:36:47.066Z,101708.06
2022-10-17T12:39:54.028Z,101704.41
2022-10-17T12:42:34.920Z,101706.81
2022-10-17T12:45:02.762Z,101707.91
2022-10-17T12:47:39.982Z,101718.50
2022-10-17T12:50:41.914Z,101710.31
2022-10-17T12:53:19.235Z,101722.28
2022-10-17T12:55:47.707Z,101717.75
2022-10-17T12:58:17.804Z,101712.94
2022-10-17T13:01:11.839Z,101727.72
2022-10-17T13:03:44.756Z,101728.56
2022-10-17T13:06:20.490Z,101731.34
2022-10-17T13:08:54.946Z,101737.03
2022-10-17T13:11:26.744Z,101739.13
2022-10-17T13:13:58.527Z,101737.03
2022-10-17T13:16:31.465Z,101740.00
2022-10-17T13:19:00.219Z,101744.69
2022-10-17T13:21:28.886Z,101750.44
2022-10-17T13:23:57.331Z,101753.22
2022-10-17T13:26:26.762Z,101760.69
2022-10-17T13:29:12.479Z,101757.03
2022-10-17T13:31:42.744Z,101756.16
2022-10-17T13:34:18.180Z,101763.25
2022-10-17T13:36:49.033Z,101769.19
2022-10-17T13:39:32.622Z,101767.28
2022-10-17T13:42:21.508Z,101771.97
2022-10-17T13:44:50.997Z,101776.63
2022-10-17T13:47:23.927Z,101776.47
2022-10-17T13:49:55.265Z,101782.38
2022-10-17T13:52:27.111Z,101779.59
2022-10-17T13:54:56.308Z,101777.84
2022-10-17T13:57:26.682Z,101785.84
2022-10-17T13:59:58.284Z,101787.59
2022-10-17T14:02:28.325Z,101785.13
2022-10-17T14:05:16.697Z,101781.00
2022-10-17T14:08:10.635Z,101774.72
2022-10-17T14:10:40.846Z,101776.63
2022-10-17T14:13:22.880Z,101781.00
2022-10-17T14:15:53.618Z,101785.69
2022-10-17T14:18:26.165Z,101776.09
2022-10-17T14:21:33.960Z,101781.66
2022-10-17T14:23:44.640Z,101784.44
2022-10-17T14:26:16.896Z,101787.78
2022-10-17T14:28:47.060Z,101786.06
2022-10-17T14:31:33.777Z,101786.91
2022-10-17T14:34:03.247Z,101801.50
2022-10-17T14:36:34.069Z,101807.75
2022-10-17T14:39:02.848Z,101808.81
2022-10-17T14:41:48.620Z,101817.81
2022-10-17T14:44:23.969Z,101822.16
2022-10-17T14:46:57.752Z,101819.38
2022-10-17T14:49:32.413Z,101830.34
2022-10-17T14:52:28.570Z,101831.38
2022-10-17T14:54:57.766Z,101849.09
2022-10-17T14:57:29.329Z,101835.91
2022-10-17T14:59:57.799Z,101840.91
2022-10-17T15:02:28.378Z,101845.97
2022-10-17T15:04:56.591Z,101852.72
2022-10-17T15:07:24.689Z,101852.56
2022-10-17T15:09:54.173Z,101852.41
2022-10-17T15:12:25.049Z,101854.31
2022-10-17T15:14:53.761Z,101846.13
2022-10-17T15:17:24.907Z,101856.22
2022-10-17T15:19:54.701Z,101854.31
2022-10-17T15:22:22.876Z,101844.41
2022-10-17T15:24:51.053Z,101849.09
2022-10-17T15:27:20.983Z,101860.19
2022-10-17T15:29:49.544Z,101855.84
2022-10-17T15:32:17.591Z,101851.53
2022-10-17T15:34:46.014Z,101858.13
2022-10-17T15:37:20.779Z,101853.44
2022-10-17T15:39:52.963Z,101877.88
2022-10-17T15:42:21.563Z,101898.72
2022-10-17T15:44:50.286Z,101895.22
2022-10-17T15:47:25.351Z,101909.81
2022-10-17T15:49:53.806Z,101905.13
2022-10-17T15:52:23.753Z,101917.09
2022-10-17T15:54:51.816Z,101912.03
2022-10-17T15:57:21.781Z,101905.78
2022-10-17T15:59:51.348Z,101909.94
2022-10-17T16:02:20.488Z,101912.16
2022-10-17T16:04:49.737Z,101916.34
2022-10-17T16:07:18.096Z,101935.22
2022-10-17T16:09:47.787Z,101940.06
2022-10-17T16:12:18.231Z,101945.97
2022-10-17T16:14:46.366Z,101943.88
2022-10-17T16:17:15.851Z,101943.16
2022-10-17T16:19:44.847Z,101948.16
2022-10-17T16:22:25.386Z,101951.09
2022-10-17T16:24:58.585Z,101965.50
2022-10-17T16:27:26.508Z,101965.97
2022-10-17T16:29:54.332Z,101967.34
2022-10-17T16:32:22.207Z,101964.91
2022-10-17T16:34:49.973Z,101963.31
2022-10-17T16:37:17.800Z,101964.66
2022-10-17T16:39:49.073Z,101970.56
2022-10-17T16:42:18.397Z,101971.75
2022-10-17T16:44:46.152Z,101962.19
2022-10-17T16:47:14.149Z,101944.09
2022-10-17T16:49:44.500Z,101936.97
2022-10-17T16:52:14.146Z,101936.28
2022-10-17T16:54:42.043Z,101939.53
2022-10-17T16:57:09.981Z,101958.06
2022-10-17T16:59:39.371Z,101970.19
2022-10-17T17:02:07.384Z,101987.34
2022-10-17T17:04:35.210Z,101998.59
2022-10-17T17:07:03.279Z,101999.63
2022-10-17T17:09:31.118Z,101995.25
2022-10-17T17:11:59.083Z,102007.56
2022-10-17T17:14:27.109Z,102016.03
2022-10-17T17:16:56.353Z,102016.03
2022-10-17T17:19:24.196Z,102006.28
2022-10-17T17:21:52.044Z,102002.81
2022-10-17T17:24:21.864Z,101995.53
2022-10-17T17:26:52.435Z,102001.06
2022-10-17T17:29:20.512Z,101998.59
2022-10-17T17:31:48.363Z,101997.00
2022-10-17T17:34:18.367Z,101991.47
2022-10-17T17:36:46.936Z,102007.41
2022-10-17T17:39:16.393Z,102012.97
2022-10-17T17:41:45.757Z,102004.81
2022-10-17T17:44:16.690Z,102013.28
2022-10-17T17:46:45.364Z,102013.44
2022-10-17T17:49:13.883Z,102017.22
2022-10-17T17:51:46.318Z,102017.06
2022-10-17T17:54:14.662Z,102018.59
2022-10-17T17:56:43.004Z,102017.56
2022-10-17T17:59:13.387Z,102021.06
2022-10-17T18:01:41.270Z,102012.16
2022-10-17T18:04:10.129Z,102022.38
2022-10-17T18:06:39.480Z,102026.03
2022-10-17T18:09:09.613Z,102024.28
2022-10-17T18:11:38.183Z,102028.19
2022-10-17T18:14:08.132Z,102026.34
2022-10-17T18:16:37.716Z,102033.75
2022-10-17T18:19:08.789Z,102033.94
2022-10-17T18:21:37.108Z,102036.84
2022-10-17T18:24:05.612Z,102033.38
2022-10-17T18:26:35.188Z,102037.00
2022-10-17T18:29:03.048Z,102043.72
2022-10-17T18:31:35.623Z,102039.22
2022-10-17T18:34:05.200Z,102038.53
2022-10-17T18:36:34.700Z,102044.06
2022-10-17T18:39:03.248Z,102050.78
2022-10-17T18:41:31.394Z,102048.31
2022-10-17T18:44:00.909Z,102063.75
2022-10-17T18:46:30.793Z,102052.09
2022-10-17T18:48:59.279Z,102061.63
2022-10-17T18:51:27.683Z,102064.41
2022-10-17T18:53:58.592Z,102063.53
2022-10-17T18:56:26.776Z,102057.25
2022-10-17T18:58:55.143Z,102067.47
2022-10-17T19:01:26.112Z,102069.22
2022-10-17T19:03:56.139Z,102073.16
2022-10-17T19:06:27.174Z,102082.50
2022-10-17T19:08:55.741Z,102072.47
2022-10-17T19:11:24.873Z,102073.63
2022-10-17T19:13:53.462Z,102072.03
2022-10-17T19:16:25.861Z,102074.66
2022-10-17T19:18:55.442Z,102075.13
2022-10-17T19:21:23.829Z,102077.91
2022-10-17T19:23:52.992Z,102072.38
2022-10-17T19:26:21.686Z,102079.97
2022-10-17T19:28:52.206Z,102074.56
2022-10-17T19:31:26.250Z,102084.91
2022-10-17T19:33:57.150Z,102084.03
2022-10-17T19:36:30.544Z,102093.38
2022-10-17T19:39:02.808Z,102095.44
2022-10-17T19:41:30.721Z,102093.84
2022-10-17T19:43:59.252Z,102104.06
2022-10-17T19:46:28.649Z,102099.53
2022-10-17T19:48:58.369Z,102101.44
2022-10-17T19:51:27.004Z,102094.28
2022-10-17T19:53:56.821Z,102095.34
2022-10-17T19:56:25.974Z,102101.03
2022-10-17T19:58:55.558Z,102102.19
2022-10-17T20:01:25.927Z,102103.22
2022-10-17T20:03:55.085Z,102103.38
2022-10-17T20:06:24.696Z,102102.50
2022-10-17T20:08:52.546Z,102090.88
2022-10-17T20:11:22.364Z,102096.41
2022-10-17T20:13:50.360Z,102095.81
2022-10-17T20:16:21.226Z,102096.84
2022-10-17T20:18:49.446Z,102098.91
2022-10-17T20:21:20.160Z,102102.56
2022-10-17T20:23:50.536Z,102105.63
2022-10-17T20:26:38.768Z,102106.66
2022-10-17T20:29:11.041Z,102118.00
2022-10-17T20:31:40.239Z,102114.66
2022-10-17T20:34:08.243Z,102115.66
2022-10-17T20:36:37.704Z,102112.03
2022-10-17T20:39:07.482Z,102126.59
2022-10-17T20:41:35.587Z,102134.31
2022-10-17T20:44:04.067Z,102128.09
2022-10-17T20:47:04.447Z,102132.75
2022-10-17T20:49:21.124Z,102125.59
2022-10-17T20:51:49.023Z,102119.34
2022-10-17T20:54:18.159Z,102120.06
2022-10-17T20:56:45.978Z,102122.25
2022-10-17T20:59:17.012Z,102124.16
2022-10-17T21:01:46.139Z,102116.91
2022-10-17T21:04:44.954Z,102122.56
2022-10-17T21:07:03.095Z,102109.03
2022-10-17T21:09:32.292Z,102113.53
2022-10-17T21:14:36.387Z,102105.84
2022-10-17T21:17:05.487Z,102099.56
2022-10-17T21:19:34.311Z,102109.91
2022-10-17T21:22:02.324Z,102111.09
2022-10-17T21:24:30.222Z,102118.53
2022-10-17T21:26:59.378Z,102117.66
2022-10-17T21:29:27.552Z,102114.31
2022-10-17T21:31:55.304Z,102119.97
2022-10-17T21:34:25.130Z,102119.09
2022-10-17T21:36:53.982Z,102122.88
2022-10-17T21:39:23.981Z,102133.25
2022-10-17T21:41:52.071Z,102132.38
2022-10-17T21:44:23.334Z,102122.00
2022-10-17T21:46:51.535Z,102127.88
2022-10-17T21:49:21.590Z,102124.22
2022-10-17T21:51:50.329Z,102129.03
2022-10-17T21:54:20.185Z,102133.69
2022-10-17T21:56:48.041Z,102130.34
2022-10-17T21:59:16.182Z,102137.63
2022-10-17T22:01:47.058Z,102147.81
2022-10-17T22:04:16.830Z,102141.56
2022-10-17T22:06:46.585Z,102148.97
2022-10-17T22:09:16.503Z,102141.69
2022-10-17T22:11:47.464Z,102149.84
2022-10-17T22:14:18.237Z,102154.50
2022-10-17T22:16:48.984Z,102143.44
2022-10-17T22:19:20.495Z,102142.56
2022-10-17T22:21:48.800Z,102140.97
2022-10-17T22:24:18.439Z,102140.09
2022-10-17T22:26:47.503Z,102140.41
2022-10-17T22:29:15.661Z,102146.94
2022-10-17T22:31:43.951Z,102146.22
2022-10-17T22:34:15.642Z,102154.50
2022-10-17T22:36:43.995Z,102160.63
2022-10-17T22:39:12.510Z,102165.16
2022-10-17T22:41:40.471Z,102167.03
2022-10-17T22:44:08.579Z,102166.16
2022-10-17T22:46:37.444Z,102168.06
2022-10-17T22:49:05.444Z,102162.66
2022-10-17T22:51:34.869Z,102163.25
2022-10-17T22:54:02.945Z,102159.03
2022-10-17T22:56:31.198Z,102165.44
2022-10-17T22:58:59.129Z,102160.03
2022-10-17T23:01:27.565Z,102155.53
2022-10-17T23:03:55.466Z,102166.59
2022-10-17T23:06:23.678Z,102163.81
2022-10-17T23:08:53.026Z,102163.69
2022-10-17T23:11:21.795Z,102161.22
2022-10-17T23:13:49.788Z,102159.31
2022-10-17T23:16:17.674Z,102161.22
2022-10-17T23:18:45.419Z,102159.47
2022-10-17T23:21:13.254Z,102153.94
2022-10-17T23:23:41.043Z,102157.81
2022-10-17T23:26:13.080Z,102157.59
2022-10-17T23:28:41.683Z,102156.06
2022-10-17T23:31:11.218Z,102165.09
2022-10-17T23:33:41.217Z,102156.22
2022-10-17T23:36:10.551Z,102160.72
2022-10-17T23:38:38.669Z,102167.28
2022-10-17T23:41:07.081Z,102169.03
2022-10-17T23:43:36.642Z,102170.78
2022-10-17T23:46:06.487Z,102171.78
2022-10-17T23:48:34.622Z,102171.06
2022-10-17T23:51:02.392Z,102175.72
2022-10-17T23:53:30.122Z,102167.41
2022-10-17T23:55:57.885Z,102174.00
2022-10-17T23:58:25.760Z,102171.06
